Time;durP1;ratioP1;P1;durP2;ratioP2;P2;SDS_P1;SDS_P2;PMS_P1;PMS_P2;Temp;Humidity;BMP_temperature;BMP_pressure;BME280_temperature;BME280_humidity;BME280_pressure;Samples;Min_cycle;Max_cycle;Signal;HPM_P1;HPM_P2
2021/06/08 00:01:18;;;;;;;2.95;2.75;;;;;;;15.38;82.42;96505.25;5106205;58;20150;-79
2021/06/08 00:06:20;;;;;;;3.35;3.03;;;;;;;15.22;83.13;96514.19;5106327;58;20141;-79
2021/06/08 00:11:23;;;;;;;3.60;3.30;;;;;;;15.11;83.33;96513.31;5104938;58;20132;-79
2021/06/08 00:16:25;;;;;;;3.40;3.10;;;;;;;15.15;82.85;96514.63;5104684;58;20128;-78
2021/06/08 00:21:28;;;;;;;3.05;2.85;;;;;;;15.29;82.13;96515.81;5104698;58;20202;-79
2021/06/08 00:26:32;;;;;;;3.40;3.08;;;;;;;15.24;82.61;96511.69;5104762;58;20141;-79
2021/06/08 00:31:35;;;;;;;3.55;3.25;;;;;;;15.02;83.16;96494.69;5099861;58;20137;-79
2021/06/08 00:36:37;;;;;;;3.63;3.33;;;;;;;14.95;83.53;96509.03;5117635;58;20106;-80
2021/06/08 00:41:45;;;;;;;3.45;3.15;;;;;;;14.82;84.08;96497.47;5112356;58;20692;-79
2021/06/08 00:46:48;;;;;;;3.63;3.33;;;;;;;14.89;84.07;96499.84;5104264;58;20132;-78
2021/06/08 00:51:51;;;;;;;3.70;3.40;;;;;;;14.86;84.15;96498.03;5102950;58;20233;-79
2021/06/08 00:56:55;;;;;;;3.80;3.50;;;;;;;14.62;85.17;96503.03;5103646;58;20140;-79
2021/06/08 01:01:57;;;;;;;4.55;3.67;;;;;;;14.56;85.46;96497.41;5105007;58;20567;-79
2021/06/08 01:07:00;;;;;;;4.13;3.78;;;;;;;14.61;85.13;96482.03;5107278;58;20123;-80
2021/06/08 01:12:03;;;;;;;4.32;4.03;;;;;;;14.54;85.28;96482.44;5113262;58;20132;-80
2021/06/08 01:17:05;;;;;;;4.88;4.38;;;;;;;14.49;85.18;96472.78;5121735;58;20119;-79
2021/06/08 01:22:08;;;;;;;4.22;3.92;;;;;;;14.41;85.55;96466.06;5110203;58;20688;-79
2021/06/08 01:27:11;;;;;;;4.47;4.07;;;;;;;14.45;85.30;96479.78;5109272;58;20606;-80
2021/06/08 01:32:15;;;;;;;4.00;3.65;;;;;;;14.27;85.70;96484.28;5109974;58;20162;-80
2021/06/08 01:37:17;;;;;;;3.92;3.55;;;;;;;14.12;86.01;96483.56;5110238;58;20141;-79
2021/06/08 01:42:20;;;;;;;4.45;4.05;;;;;;;14.04;86.24;96482.44;5109544;58;20149;-79
2021/06/08 01:47:22;;;;;;;5.00;4.60;;;;;;;13.91;86.68;96475.66;5111166;58;20141;-80
2021/06/08 01:52:34;;;;;;;4.88;4.47;;;;;;;13.88;87.51;96479.38;5101199;58;20136;-80
2021/06/08 01:57:48;;;;;;;7.45;4.82;;;;;;;14.00;87.03;96484.63;5100922;58;20136;-80
2021/06/08 02:03:10;;;;;;;7.30;4.95;;;;;;;13.75;87.76;96484.47;5108124;58;20151;-79
2021/06/08 02:08:31;;;;;;;5.28;4.68;;;;;;;13.81;87.91;96488.88;5108162;58;20124;-79
2021/06/08 02:14:05;;;;;;;5.07;4.57;;;;;;;13.87;87.57;96484.16;5107531;58;20158;-80
2021/06/08 02:19:10;;;;;;;5.18;4.75;;;;;;;13.92;87.48;96488.28;5066714;58;20696;-80
2021/06/08 02:24:17;;;;;;;7.20;4.80;;;;;;;13.80;87.26;96492.88;5105807;58;20628;-79
2021/06/08 02:29:22;;;;;;;5.30;4.80;;;;;;;13.71;87.84;96489.44;5108383;58;20127;-79
2021/06/08 02:34:27;;;;;;;5.15;4.63;;;;;;;13.84;87.58;96498.25;5106608;58;20142;-79
2021/06/08 02:39:31;;;;;;;5.57;5.00;;;;;;;13.81;87.66;96496.44;5107508;58;20119;-79
2021/06/08 02:44:34;;;;;;;5.15;4.65;;;;;;;13.67;87.94;96495.19;5107195;58;20877;-79
2021/06/08 02:49:37;;;;;;;6.53;4.32;;;;;;;13.70;87.84;96499.78;5107299;58;20128;-80
2021/06/08 02:54:40;;;;;;;5.85;4.40;;;;;;;13.64;87.83;96496.13;5107036;58;20131;-79
2021/06/08 02:59:48;;;;;;;5.03;4.57;;;;;;;13.79;87.27;96502.47;5106976;58;20171;-79
2021/06/08 03:04:53;;;;;;;5.97;4.80;;;;;;;13.45;88.51;96514.22;5107116;58;20614;-79
2021/06/08 03:10:09;;;;;;;5.10;4.60;;;;;;;13.48;88.82;96514.03;5107572;58;20105;-78
2021/06/08 03:15:13;;;;;;;5.47;4.63;;;;;;;13.55;88.55;96515.66;5107193;58;20144;-79
2021/06/08 03:20:37;;;;;;;5.20;4.72;;;;;;;13.74;87.88;96527.34;5107130;58;20145;-79
2021/06/08 03:25:41;;;;;;;6.47;4.55;;;;;;;13.78;87.45;96523.16;5098760;58;20141;-79
2021/06/08 03:30:43;;;;;;;4.13;3.83;;;;;;;13.74;87.60;96542.00;5089295;58;20123;-78
2021/06/08 03:35:48;;;;;;;4.57;4.07;;;;;;;13.67;87.79;96525.72;5101135;58;20132;-78
2021/06/08 03:40:53;;;;;;;4.78;4.28;;;;;;;13.72;87.46;96536.19;5101117;58;20136;-77
2021/06/08 03:45:56;;;;;;;8.90;4.35;;;;;;;13.91;87.67;96534.72;5102801;58;20140;-78
2021/06/08 03:50:59;;;;;;;4.78;4.38;;;;;;;14.02;87.09;96537.69;5101240;58;20128;-78
2021/06/08 03:56:03;;;;;;;5.93;4.43;;;;;;;14.11;86.51;96539.63;5093010;58;20136;-77
2021/06/08 04:01:06;;;;;;;5.05;4.55;;;;;;;14.23;86.52;96536.53;5101096;58;20515;-78
2021/06/08 04:06:08;;;;;;;4.53;4.10;;;;;;;14.23;86.99;96530.22;5092631;58;20145;-77
2021/06/08 04:11:11;;;;;;;4.38;3.97;;;;;;;14.31;86.63;96542.50;5101175;58;20132;-77
2021/06/08 04:16:14;;;;;;;4.32;3.78;;;;;;;14.58;85.96;96539.41;5103227;58;20141;-78
2021/06/08 04:21:22;;;;;;;6.07;4.68;;;;;;;14.59;86.22;96545.69;5105255;58;20137;-79
2021/06/08 04:26:25;;;;;;;4.55;4.15;;;;;;;14.80;85.74;96541.72;5107335;58;20136;-78
2021/06/08 04:31:28;;;;;;;6.90;4.57;;;;;;;14.91;85.06;96555.78;5104505;58;20661;-78
2021/06/08 04:36:30;;;;;;;4.63;4.22;;;;;;;15.11;84.59;96558.56;5095737;58;20124;-78
2021/06/08 04:41:33;;;;;;;4.60;4.20;;;;;;;15.47;83.70;96560.09;5103765;58;20132;-77
2021/06/08 04:46:38;;;;;;;4.63;4.22;;;;;;;15.43;83.99;96565.06;5094600;58;20128;-79
2021/06/08 04:51:41;;;;;;;4.50;4.05;;;;;;;15.74;83.10;96560.38;5103386;58;20687;-77
2021/06/08 04:56:44;;;;;;;5.63;4.60;;;;;;;15.65;82.40;96554.97;5103011;58;20131;-78
2021/06/08 05:01:48;;;;;;;5.28;4.78;;;;;;;15.73;82.80;96560.88;5105704;58;20728;-78
2021/06/08 05:06:57;;;;;;;9.38;5.15;;;;;;;15.88;83.06;96569.13;5108187;58;20128;-77
2021/06/08 05:12:05;;;;;;;5.28;4.78;;;;;;;16.20;81.34;96573.50;5107425;58;20128;-78
2021/06/08 05:17:07;;;;;;;7.25;4.90;;;;;;;16.38;80.84;96573.91;5106573;58;20659;-78
2021/06/08 05:22:11;;;;;;;5.63;4.60;;;;;;;16.43;80.72;96562.03;5089907;58;20123;-78
2021/06/08 05:27:14;;;;;;;5.43;4.93;;;;;;;16.72;79.42;96572.16;5098451;58;20221;-79
2021/06/08 05:32:17;;;;;;;4.43;4.07;;;;;;;16.66;80.02;96581.78;5098029;58;20699;-78
2021/06/08 05:37:19;;;;;;;5.30;4.80;;;;;;;16.90;78.84;96588.53;5105064;58;20128;-77
2021/06/08 05:42:22;;;;;;;6.10;5.13;;;;;;;16.65;80.34;96583.78;5106236;58;20128;-78
2021/06/08 05:47:24;;;;;;;5.90;4.93;;;;;;;17.31;79.04;96597.41;5096738;58;20132;-78
2021/06/08 05:52:27;;;;;;;5.35;4.85;;;;;;;17.52;77.76;96596.03;5104648;58;20211;-78
2021/06/08 05:57:29;;;;;;;5.90;5.28;;;;;;;17.77;76.86;96588.75;5105144;58;20132;-78
2021/06/08 06:02:34;;;;;;;9.48;5.95;;;;;;;17.70;76.77;96590.00;5106914;58;20147;-77
2021/06/08 06:07:39;;;;;;;5.78;5.18;;;;;;;17.39;77.62;96603.28;5108981;58;20299;-78
2021/06/08 06:12:43;;;;;;;6.03;5.43;;;;;;;18.16;75.71;96586.78;5106274;58;20132;-78
2021/06/08 06:17:47;;;;;;;7.18;5.85;;;;;;;18.35;75.63;96582.25;5103598;58;20132;-77
2021/06/08 06:22:51;;;;;;;8.52;7.15;;;;;;;18.35;74.08;96589.88;5098306;58;20665;-79
2021/06/08 06:27:53;;;;;;;5.90;5.35;;;;;;;19.22;72.73;96605.09;5099073;58;20682;-78
2021/06/08 06:32:56;;;;;;;8.00;6.10;;;;;;;19.97;69.81;96594.66;5108358;58;20163;-78
2021/06/08 06:38:01;;;;;;;6.47;5.85;;;;;;;20.35;67.65;96604.94;5109382;58;20136;-78
2021/06/08 06:43:05;;;;;;;8.00;6.32;;;;;;;19.82;68.61;96595.00;5099281;58;20127;-79
2021/06/08 06:48:12;;;;;;;6.43;5.80;;;;;;;19.91;69.26;96597.50;5109358;58;20171;-79
2021/06/08 06:53:17;;;;;;;6.97;6.38;;;;;;;20.31;68.42;96600.88;5109480;58;20141;-79
2021/06/08 06:58:21;;;;;;;8.02;7.25;;;;;;;19.63;68.71;96607.31;5109056;58;20128;-78
2021/06/08 07:03:30;;;;;;;7.97;7.18;;;;;;;19.64;69.94;96600.41;5109239;58;20716;-78
2021/06/08 07:08:32;;;;;;;7.07;6.40;;;;;;;20.25;68.57;96603.72;5109612;58;20123;-79
2021/06/08 07:13:35;;;;;;;8.02;7.22;;;;;;;20.17;70.21;96596.34;5109595;58;20201;-78
2021/06/08 07:18:39;;;;;;;7.30;6.45;;;;;;;21.22;65.53;96606.75;5109468;58;20136;-79
2021/06/08 07:23:48;;;;;;;7.82;7.13;;;;;;;21.37;67.62;96610.69;5109146;58;20230;-79
2021/06/08 07:28:53;;;;;;;8.95;8.05;;;;;;;21.37;65.02;96618.38;5110118;58;20745;-79
2021/06/08 07:34:04;;;;;;;7.38;6.68;;;;;;;21.64;64.54;96614.50;5109523;58;20123;-78
2021/06/08 07:39:19;;;;;;;8.13;6.75;;;;;;;21.53;65.91;96611.78;5111555;58;20093;-80
2021/06/08 07:44:29;;;;;;;8.43;7.40;;;;;;;21.68;63.78;96617.00;5113577;58;20597;-80
2021/06/08 07:49:33;;;;;;;7.95;6.90;;;;;;;21.17;65.53;96621.63;5101647;58;20154;-79
2021/06/08 07:54:37;;;;;;;8.18;7.13;;;;;;;22.28;63.52;96621.09;5101320;58;20146;-79
2021/06/08 07:59:41;;;;;;;7.10;6.40;;;;;;;23.53;59.19;96603.94;5103301;58;20132;-79
2021/06/08 08:04:50;;;;;;;10.80;6.60;;;;;;;24.07;56.32;96614.69;5101259;58;20602;-80
2021/06/08 08:09:53;;;;;;;;;;;;;;;24.97;54.17;96617.03;5097166;58;20132;-80
2021/06/08 08:14:55;;;;;;;6.95;6.13;;;;;;;24.83;56.69;96617.06;5090118;58;19974;-78
2021/06/08 08:20:00;;;;;;;8.27;7.15;;;;;;;25.50;52.70;96621.81;5097820;58;20238;-77
2021/06/08 08:25:05;;;;;;;8.27;7.32;;;;;;;25.66;52.56;96621.91;5095162;58;20128;-79
2021/06/08 08:30:08;;;;;;;11.27;8.95;;;;;;;23.65;56.69;96613.72;5100660;58;20119;-79
2021/06/08 08:35:12;;;;;;;8.38;7.53;;;;;;;25.25;52.45;96625.53;5100297;58;20639;-79
2021/06/08 08:40:17;;;;;;;7.97;7.18;;;;;;;25.62;52.83;96625.84;5103065;58;20128;-78
2021/06/08 08:45:20;;;;;;;8.65;7.80;;;;;;;26.50;51.78;96624.63;5096230;58;20114;-78
2021/06/08 08:50:23;;;;;;;8.95;8.15;;;;;;;27.65;46.98;96618.53;5101306;58;20344;-78
2021/06/08 08:55:29;;;;;;;8.85;8.00;;;;;;;26.78;49.22;96615.25;5106158;57;20114;-78
2021/06/08 09:00:33;;;;;;;9.93;8.80;;;;;;;26.18;49.69;96613.75;5106387;58;20137;-79
2021/06/08 09:05:37;;;;;;;9.43;7.95;;;;;;;26.67;50.48;96616.34;5096047;58;20136;-78
2021/06/08 09:10:42;;;;;;;8.40;7.60;;;;;;;26.57;50.25;96623.88;5105824;58;20123;-77
2021/06/08 09:15:45;;;;;;;9.27;8.02;;;;;;;25.68;53.36;96614.38;5106735;58;20136;-81
2021/06/08 09:20:48;;;;;;;9.70;8.80;;;;;;;25.09;56.11;96615.41;5106453;58;20131;-78
2021/06/08 09:25:53;;;;;;;10.05;9.07;;;;;;;24.55;54.78;96613.38;5102303;58;20115;-77
2021/06/08 09:30:59;;;;;;;10.57;9.55;;;;;;;25.56;50.75;96618.81;5101966;58;20127;-77
2021/06/08 09:36:11;;;;;;;10.70;9.55;;;;;;;24.58;54.51;96623.56;5100363;58;20123;-77
2021/06/08 09:41:24;;;;;;;10.75;9.40;;;;;;;23.05;58.70;96607.88;5099331;58;20123;-76
2021/06/08 09:46:29;;;;;;;10.68;9.57;;;;;;;22.93;62.19;96620.66;5097300;58;20127;-77
2021/06/08 09:52:02;;;;;;;11.80;9.93;;;;;;;23.73;55.78;96619.47;5105929;58;20673;-78
2021/06/08 09:57:27;;;;;;;8.55;7.80;;;;;;;24.91;53.74;96614.31;5107489;58;20114;-78
2021/06/08 10:02:43;;;;;;;10.75;8.90;;;;;;;24.32;54.38;96612.34;5097991;58;20153;-78
2021/06/08 10:07:47;;;;;;;8.15;7.35;;;;;;;25.69;54.71;96618.75;5075594;58;20132;-81
2021/06/08 10:13:02;;;;;;;9.30;8.38;;;;;;;26.01;50.28;96615.50;5091061;58;20119;-78
2021/06/08 10:18:09;;;;;;;11.20;9.73;;;;;;;26.77;48.68;96619.41;5097233;58;20214;-78
2021/06/08 10:23:28;;;;;;;10.05;9.05;;;;;;;25.86;50.42;96613.34;5099539;58;20132;-76
2021/06/08 10:28:31;;;;;;;8.57;7.68;;;;;;;28.12;45.98;96609.34;5098531;58;20150;-76
2021/06/08 10:33:34;;;;;;;9.48;8.57;;;;;;;26.74;48.91;96598.63;5098490;58;20248;-77
2021/06/08 10:38:52;;;;;;;12.07;8.73;;;;;;;28.31;47.41;96610.41;5097829;57;20118;-78
2021/06/08 10:43:54;;;;;;;11.60;9.00;;;;;;;28.80;44.06;96589.88;5099868;58;20641;-78
2021/06/08 10:48:57;;;;;;;9.73;8.75;;;;;;;29.74;41.98;96596.50;5100885;58;20123;-78
2021/06/08 10:54:01;;;;;;;7.90;7.20;;;;;;;30.10;40.72;96602.41;5095831;58;20160;-78
2021/06/08 10:59:09;;;;;;;8.23;7.35;;;;;;;30.41;41.75;96591.41;5098810;58;20136;-77
2021/06/08 11:04:13;;;;;;;8.13;7.32;;;;;;;31.05;39.32;96595.88;5112619;58;20132;-76
2021/06/08 11:09:24;;;;;;;8.05;7.25;;;;;;;31.59;35.28;96602.25;5108572;58;20133;-77
2021/06/08 11:14:33;;;;;;;9.45;7.38;;;;;;;28.84;40.41;96590.22;5100199;58;20700;-77
2021/06/08 11:19:53;;;;;;;8.02;7.22;;;;;;;28.86;40.55;96581.84;5095392;58;20132;-80
2021/06/08 11:24:55;;;;;;;6.35;5.78;;;;;;;28.19;42.47;96569.53;5107363;58;20686;-79
2021/06/08 11:29:58;;;;;;;8.50;7.70;;;;;;;26.48;44.04;96583.97;5110076;58;20119;-81
2021/06/08 11:35:22;;;;;;;8.27;7.15;;;;;;;27.08;45.57;96564.22;5100651;58;20111;-81
2021/06/08 11:40:39;;;;;;;7.63;6.93;;;;;;;27.92;44.54;96557.09;5110469;58;20154;-79
2021/06/08 11:45:46;;;;;;;7.60;6.90;;;;;;;28.22;42.00;96553.41;5109268;58;20124;-80
2021/06/08 11:50:48;;;;;;;7.75;7.03;;;;;;;27.34;46.09;96552.47;5106206;58;20137;-80
2021/06/08 11:56:09;;;;;;;6.82;6.28;;;;;;;28.12;42.38;96550.41;5105783;58;20132;-79
2021/06/08 12:01:35;;;;;;;8.30;7.53;;;;;;;26.28;45.19;96545.94;5099518;58;20304;-78
2021/06/08 12:07:10;;;;;;;7.57;6.88;;;;;;;27.59;41.99;96532.78;5098571;58;20132;-77
2021/06/08 12:12:15;;;;;;;7.32;6.72;;;;;;;29.21;41.21;96531.53;5095415;58;20133;-78
2021/06/08 12:17:18;;;;;;;6.43;5.80;;;;;;;30.19;38.31;96526.88;5096190;58;20610;-77
2021/06/08 12:22:27;;;;;;;8.47;7.33;;;;;;;29.96;38.27;96526.41;5093058;58;20132;-76
2021/06/08 12:27:34;;;;;;;6.75;6.00;;;;;;;29.90;37.84;96523.06;5089162;58;20149;-77
2021/06/08 12:32:38;;;;;;;7.15;6.13;;;;;;;29.00;41.64;96517.63;5096468;58;20127;-77
2021/06/08 12:37:40;;;;;;;6.45;5.85;;;;;;;28.65;39.40;96518.13;5096626;58;20603;-77
2021/06/08 12:42:43;;;;;;;6.70;6.10;;;;;;;29.15;39.23;96499.69;5090585;58;20145;-77
2021/06/08 12:47:46;;;;;;;7.38;6.72;;;;;;;28.72;38.69;96500.97;5098984;58;20141;-78
2021/06/08 12:52:56;;;;;;;5.80;5.30;;;;;;;27.90;39.33;96483.06;5085680;58;20119;-77
2021/06/08 12:58:02;;;;;;;5.60;5.20;;;;;;;28.82;39.19;96481.19;5077545;58;20159;-76
2021/06/08 13:03:05;;;;;;;5.68;5.20;;;;;;;29.01;38.39;96478.56;5070547;58;20135;-76
2021/06/08 13:08:08;;;;;;;5.10;4.15;;;;;;;28.78;34.71;96480.84;5078471;58;20124;-77
2021/06/08 13:13:16;;;;;;;3.88;3.40;;;;;;;29.42;32.96;96463.56;5081056;58;20424;-78
2021/06/08 13:18:23;;;;;;;3.63;3.00;;;;;;;29.79;32.25;96462.38;5087187;58;20304;-77
2021/06/08 13:23:33;;;;;;;3.38;2.85;;;;;;;28.60;30.80;96457.28;5096128;58;20154;-77
2021/06/08 13:28:38;;;;;;;2.70;2.58;;;;;;;29.39;31.07;96453.34;5099720;58;20119;-78
2021/06/08 13:33:43;;;;;;;3.20;3.00;;;;;;;28.90;34.49;96445.63;5105478;58;20132;-78
2021/06/08 13:38:45;;;;;;;2.92;2.78;;;;;;;28.78;32.31;96426.81;5104336;58;20141;-78
2021/06/08 13:43:48;;;;;;;2.45;2.35;;;;;;;28.31;31.89;96419.97;5101244;58;20141;-78
2021/06/08 13:48:57;;;;;;;3.30;2.47;;;;;;;28.38;33.32;96416.28;5098306;58;20709;-78
2021/06/08 13:54:21;;;;;;;3.58;2.70;;;;;;;28.40;32.75;96416.47;5104510;58;20119;-78
2021/06/08 14:05:29;;;;;;;2.40;2.30;;;;;;;28.43;31.23;96406.78;5098888;58;20114;-78
2021/06/08 14:10:31;;;;;;;2.63;2.53;;;;;;;28.90;30.30;96422.88;5104661;58;20700;-77
2021/06/08 14:15:47;;;;;;;3.00;2.72;;;;;;;28.21;32.20;96412.63;5084660;58;20598;-77
2021/06/08 14:20:49;;;;;;;3.78;2.97;;;;;;;28.09;38.66;96400.22;5101014;58;20150;-76
2021/06/08 14:25:52;;;;;;;3.15;2.90;;;;;;;28.99;35.35;96408.00;5101070;58;20132;-77
2021/06/08 14:30:54;;;;;;;2.85;2.65;;;;;;;29.92;31.98;96409.25;5092662;58;20106;-77
2021/06/08 14:35:56;;;;;;;3.08;2.80;;;;;;;29.35;32.73;96407.47;5100496;58;20593;-77
2021/06/08 14:41:00;;;;;;;2.90;2.70;;;;;;;30.97;29.32;96406.81;5101270;58;20581;-77
2021/06/08 14:46:03;;;;;;;3.58;2.80;;;;;;;30.66;29.21;96411.53;5101324;58;20127;-77
2021/06/08 14:51:06;;;;;;;2.97;2.78;;;;;;;29.60;31.03;96402.41;5100780;58;20622;-77
2021/06/08 14:56:09;;;;;;;3.20;3.00;;;;;;;28.94;31.67;96403.31;5092239;58;20184;-77
2021/06/08 15:01:13;;;;;;;3.55;3.25;;;;;;;28.05;34.15;96403.47;5100640;58;20136;-76
2021/06/08 15:06:16;;;;;;;3.65;3.10;;;;;;;28.77;35.27;96406.13;5100329;58;20127;-76
2021/06/08 15:11:18;;;;;;;3.33;3.00;;;;;;;29.04;32.65;96397.69;5100464;58;20119;-77
2021/06/08 15:16:23;;;;;;;3.35;3.13;;;;;;;27.42;34.02;96402.06;5099692;58;20132;-77
2021/06/08 15:21:26;;;;;;;4.20;3.10;;;;;;;28.25;33.22;96396.69;5100185;58;20213;-77
2021/06/08 15:26:28;;;;;;;3.13;2.90;;;;;;;28.69;34.70;96387.63;5101374;58;20133;-77
2021/06/08 15:31:32;;;;;;;3.80;3.47;;;;;;;28.65;33.77;96398.66;5099969;58;20291;-77
2021/06/08 15:36:40;;;;;;;3.90;3.15;;;;;;;29.01;34.68;96396.03;5100555;58;20280;-78
2021/06/08 15:41:42;;;;;;;3.90;3.55;;;;;;;28.64;34.56;96403.59;5105257;58;20155;-78
2021/06/08 15:46:45;;;;;;;3.60;3.30;;;;;;;28.01;34.78;96403.13;5107326;58;20333;-79
2021/06/08 15:51:47;;;;;;;3.40;3.20;;;;;;;27.09;37.89;96400.44;5107667;58;20141;-78
2021/06/08 15:56:50;;;;;;;3.60;3.40;;;;;;;26.40;37.15;96405.41;5105947;58;20895;-76
2021/06/08 16:01:52;;;;;;;4.00;3.50;;;;;;;26.18;38.97;96392.00;5102290;58;20637;-78
2021/06/08 16:06:56;;;;;;;3.67;3.38;;;;;;;25.63;39.45;96409.44;5104593;58;20115;-78
2021/06/08 16:12:10;;;;;;;3.45;3.25;;;;;;;25.49;40.93;96410.13;5114289;58;20137;-77
2021/06/08 16:17:14;;;;;;;3.63;3.38;;;;;;;25.39;40.78;96407.06;5113444;58;20734;-77
2021/06/08 16:22:17;;;;;;;4.20;3.80;;;;;;;25.12;41.94;96419.19;5103427;58;20273;-77
2021/06/08 16:27:20;;;;;;;3.90;3.60;;;;;;;24.92;42.84;96418.69;5093652;58;20187;-77
2021/06/08 16:32:22;;;;;;;3.85;3.55;;;;;;;25.00;44.01;96420.78;5103070;58;20142;-78
2021/06/08 16:37:25;;;;;;;3.65;3.30;;;;;;;25.02;42.68;96415.34;5103302;58;20114;-82
2021/06/08 16:42:27;;;;;;;4.63;3.60;;;;;;;24.78;42.68;96422.19;5097840;58;20140;-79
2021/06/08 16:47:31;;;;;;;6.00;3.33;;;;;;;25.08;42.26;96421.59;5106860;58;20226;-81
2021/06/08 16:57:54;;;;;;;4.47;3.58;;;;;;;24.99;43.29;96419.28;5111692;58;20110;-79
2021/06/08 17:25:28;;;;;;;6.22;4.95;;;;;;;22.89;53.61;96453.91;5810860;46;20175;-79
2021/06/08 17:30:31;;;;;;;5.28;4.80;;;;;;;22.76;53.88;96457.50;5108183;58;20199;-79
2021/06/08 17:35:33;;;;;;;5.70;4.90;;;;;;;22.38;53.87;96460.97;5087326;58;20662;-78
2021/06/08 17:40:36;;;;;;;5.40;4.90;;;;;;;22.48;53.33;96459.28;5088612;58;20124;-79
2021/06/08 17:45:38;;;;;;;5.45;5.05;;;;;;;22.11;54.71;96454.50;5085587;58;20762;-79
2021/06/08 17:50:40;;;;;;;5.50;5.10;;;;;;;22.04;54.66;96455.13;5084014;58;20137;-78
2021/06/08 17:55:43;;;;;;;5.85;5.03;;;;;;;21.90;54.52;96468.38;5085274;58;20142;-79
2021/06/08 18:00:46;;;;;;;4.65;4.25;;;;;;;21.72;54.33;96466.31;5084353;58;20124;-79
2021/06/08 18:05:48;;;;;;;4.75;4.40;;;;;;;21.20;55.09;96472.38;5086448;58;20128;-80
2021/06/08 18:10:50;;;;;;;5.28;4.88;;;;;;;21.00;56.17;96466.47;5083843;58;20129;-80
2021/06/08 18:15:54;;;;;;;4.50;4.07;;;;;;;20.76;57.38;96481.25;5087616;58;20134;-80
2021/06/08 18:20:56;;;;;;;5.03;4.63;;;;;;;20.51;58.19;96482.56;5079657;58;20117;-79
2021/06/08 18:25:59;;;;;;;4.75;4.40;;;;;;;20.36;58.94;96471.72;5080026;58;20133;-79
2021/06/08 18:31:02;;;;;;;4.88;4.50;;;;;;;20.27;60.22;96477.66;5083323;58;20166;-79
2021/06/08 18:36:04;;;;;;;5.05;4.60;;;;;;;20.08;60.42;96484.41;5087283;58;20146;-79
2021/06/08 18:41:08;;;;;;;4.55;4.20;;;;;;;19.99;61.41;96482.72;5082028;58;20133;-79
2021/06/08 18:46:10;;;;;;;5.03;4.63;;;;;;;19.51;62.83;96486.06;5081483;58;20138;-80
2021/06/08 18:51:14;;;;;;;5.65;4.70;;;;;;;19.29;63.58;96486.16;5083744;58;20111;-79
2021/06/08 18:56:16;;;;;;;5.05;4.72;;;;;;;19.27;63.89;96481.03;5085324;58;20201;-79
2021/06/08 19:01:19;;;;;;;5.43;4.93;;;;;;;19.12;63.89;96493.84;5080206;58;20119;-79
2021/06/08 19:06:22;;;;;;;6.40;5.28;;;;;;;18.89;65.00;96484.75;5077459;58;20233;-79
2021/06/08 19:11:25;;;;;;;5.05;4.65;;;;;;;18.80;65.66;96492.66;5086494;58;20163;-79
2021/06/08 19:16:27;;;;;;;6.88;5.30;;;;;;;18.86;66.02;96501.81;5093719;58;20133;-79
2021/06/08 19:21:30;;;;;;;5.57;5.07;;;;;;;18.71;67.22;96506.94;5085152;58;20188;-79
2021/06/08 19:26:33;;;;;;;6.10;4.95;;;;;;;18.58;67.40;96518.66;5084853;58;20138;-79
2021/06/08 19:31:35;;;;;;;6.05;5.55;;;;;;;18.38;68.54;96524.50;5084444;58;20178;-79
2021/06/08 19:36:38;;;;;;;6.50;5.90;;;;;;;18.28;69.15;96521.19;5081222;58;20218;-79
2021/06/08 19:41:40;;;;;;;6.57;5.85;;;;;;;18.34;69.29;96533.13;5083686;58;20472;-79
2021/06/08 19:46:42;;;;;;;6.03;5.40;;;;;;;18.21;70.49;96544.06;5084296;58;20124;-78
2021/06/08 19:51:45;;;;;;;6.10;5.60;;;;;;;18.24;70.39;96533.91;5075027;58;20138;-78
2021/06/08 19:56:47;;;;;;;12.40;6.50;;;;;;;17.97;72.03;96540.22;5083381;58;20490;-78
2021/06/08 20:01:51;;;;;;;7.13;5.88;;;;;;;17.86;72.17;96529.81;5076465;58;20625;-80
2021/06/08 20:06:53;;;;;;;8.77;6.53;;;;;;;17.89;73.39;96534.38;5086577;58;20166;-79
2021/06/08 20:11:56;;;;;;;6.57;5.95;;;;;;;17.75;73.62;96552.16;5088046;58;20124;-78
2021/06/08 20:17:08;;;;;;;6.20;5.70;;;;;;;17.58;74.17;96548.53;5085078;58;20129;-79
2021/06/08 20:22:11;;;;;;;6.30;5.63;;;;;;;17.31;76.18;96558.31;5402050;46;20949;-79
2021/06/08 20:27:13;;;;;;;8.98;6.28;;;;;;;16.86;77.23;96562.88;5114670;57;20115;-78
2021/06/08 20:32:15;;;;;;;6.55;5.88;;;;;;;16.75;78.23;96568.41;5107259;58;20383;-79
2021/06/08 20:37:22;;;;;;;5.82;5.28;;;;;;;16.63;78.48;96572.38;5098899;58;20114;-76
2021/06/08 20:42:25;;;;;;;6.85;6.15;;;;;;;16.57;79.37;96577.16;5094624;58;20154;-79
2021/06/08 20:47:28;;;;;;;7.10;5.97;;;;;;;16.49;79.51;96578.81;5101097;58;20111;-80
2021/06/08 20:52:31;;;;;;;6.05;5.43;;;;;;;16.25;80.72;96587.50;5104643;58;20119;-79
2021/06/08 20:57:35;;;;;;;9.13;6.57;;;;;;;16.22;81.05;96587.69;5106010;58;20145;-79
2021/06/08 21:02:38;;;;;;;7.10;6.40;;;;;;;15.95;81.51;96585.41;5101708;58;20225;-79
2021/06/08 21:07:41;;;;;;;8.02;6.70;;;;;;;16.04;81.46;96586.03;5102471;58;20155;-78
2021/06/08 21:12:43;;;;;;;7.47;6.50;;;;;;;15.93;81.47;96576.78;5261663;47;20127;-79
2021/06/08 21:17:45;;;;;;;7.15;6.07;;;;;;;15.97;81.38;96588.47;5142437;58;20104;-79
2021/06/08 21:22:48;;;;;;;6.95;6.30;;;;;;;15.79;81.77;96590.31;5138480;57;20115;-79
2021/06/08 21:27:55;;;;;;;7.22;6.53;;;;;;;15.61;82.84;96593.41;5115601;58;20572;-79
2021/06/08 21:32:58;;;;;;;9.02;7.00;;;;;;;15.60;82.75;96588.34;5110917;58;20196;-79
2021/06/08 21:38:01;;;;;;;8.35;7.25;;;;;;;15.49;83.25;96591.00;5114520;58;20678;-79
2021/06/08 21:43:03;;;;;;;8.20;6.63;;;;;;;15.43;83.06;96595.69;5114398;58;20141;-79
2021/06/08 21:48:06;;;;;;;7.28;6.47;;;;;;;15.17;83.94;96583.72;5119909;58;20154;-79
2021/06/08 21:53:09;;;;;;;7.85;7.00;;;;;;;15.30;83.98;96582.13;5118876;58;20119;-78
2021/06/08 21:58:11;;;;;;;10.88;7.55;;;;;;;15.06;84.83;96585.09;5119766;58;20132;-78
2021/06/08 22:03:13;;;;;;;11.68;7.88;;;;;;;14.91;85.53;96589.16;5116447;58;20713;-78
2021/06/08 22:08:16;;;;;;;9.55;7.47;;;;;;;14.88;85.32;96581.81;5113247;58;20140;-79
2021/06/08 22:13:18;;;;;;;9.93;7.55;;;;;;;14.79;85.51;96582.69;5112162;58;20132;-79
2021/06/08 22:18:21;;;;;;;10.80;8.35;;;;;;;14.83;85.75;96579.72;5114369;58;20161;-79
2021/06/08 22:23:24;;;;;;;9.50;8.40;;;;;;;14.97;84.70;96590.03;5105066;58;20497;-79
2021/06/08 22:28:27;;;;;;;8.40;7.55;;;;;;;15.11;84.78;96582.88;5114532;58;20132;-79
2021/06/08 22:33:30;;;;;;;8.45;7.65;;;;;;;14.94;84.79;96574.28;5116799;58;20135;-79
2021/06/08 22:38:32;;;;;;;11.73;7.82;;;;;;;14.92;84.60;96591.50;5115446;58;20140;-78
2021/06/08 22:43:34;;;;;;;10.50;8.52;;;;;;;14.65;85.08;96583.50;5115660;58;20155;-79
2021/06/08 22:48:37;;;;;;;10.10;8.85;;;;;;;14.69;85.30;96591.63;5120899;58;20113;-79
2021/06/08 22:53:39;;;;;;;9.55;8.45;;;;;;;14.50;86.51;96581.97;5119469;58;20674;-79
2021/06/08 22:58:42;;;;;;;12.40;8.65;;;;;;;14.58;86.43;96591.47;5116900;58;20141;-79
2021/06/08 23:03:45;;;;;;;9.52;8.25;;;;;;;14.56;86.16;96594.75;5116903;58;20146;-79
2021/06/08 23:08:47;;;;;;;12.38;9.00;;;;;;;14.63;86.04;96590.78;5115662;58;20652;-79
2021/06/08 23:13:50;;;;;;;10.93;8.35;;;;;;;14.69;85.87;96591.63;5117892;58;20146;-79
2021/06/08 23:18:52;;;;;;;12.07;8.65;;;;;;;14.57;86.26;96592.69;5109964;58;20128;-79
2021/06/08 23:23:55;;;;;;;13.93;9.25;;;;;;;14.54;86.21;96588.13;5117852;58;20150;-79
2021/06/08 23:28:57;;;;;;;10.60;8.98;;;;;;;14.54;86.46;96586.09;5118170;58;20111;-80
2021/06/08 23:34:00;;;;;;;10.00;8.80;;;;;;;14.53;86.23;96578.22;5118263;58;20141;-79
2021/06/08 23:39:04;;;;;;;10.68;9.57;;;;;;;14.54;85.79;96583.31;5118976;58;20132;-79
2021/06/08 23:44:06;;;;;;;12.07;9.20;;;;;;;14.40;86.24;96577.78;5117769;58;20145;-79
2021/06/08 23:49:08;;;;;;;10.93;8.77;;;;;;;14.30;86.64;96572.31;5117568;58;20128;-79
2021/06/08 23:54:11;;;;;;;9.15;8.15;;;;;;;14.16;87.00;96567.50;5117015;58;20699;-79
2021/06/08 23:59:13;;;;;;;11.02;9.18;;;;;;;14.28;86.57;96588.69;5117302;58;20132;-79
